sensor_id;sensor_type;location;lat;lon;timestamp;pressure;altitude;pressure_sealevel;temperature;humidity
36328;BME280;22354;50.012;8.264;2022-08-02T00:02:13;100862.91;;;20.43;100.00
36328;BME280;22354;50.012;8.264;2022-08-02T00:04:38;100878.38;;;20.36;100.00
36328;BME280;22354;50.012;8.264;2022-08-02T00:07:03;100869.66;;;20.47;100.00
36328;BME280;22354;50.012;8.264;2022-08-02T00:09:29;100874.63;;;20.37;100.00
36328;BME280;22354;50.012;8.264;2022-08-02T00:11:54;100880.06;;;20.37;100.00
36328;BME280;22354;50.012;8.264;2022-08-02T00:14:19;100867.97;;;20.46;100.00
36328;BME280;22354;50.012;8.264;2022-08-02T00:16:45;100881.09;;;20.36;100.00
36328;BME280;22354;50.012;8.264;2022-08-02T00:19:10;100874.00;;;20.35;100.00
36328;BME280;22354;50.012;8.264;2022-08-02T00:21:35;100875.47;;;20.44;100.00
36328;BME280;22354;50.012;8.264;2022-08-02T00:24:01;100881.94;;;20.37;100.00
36328;BME280;22354;50.012;8.264;2022-08-02T00:26:26;100876.69;;;20.28;100.00
36328;BME280;22354;50.012;8.264;2022-08-02T00:28:51;100883.00;;;20.36;100.00
36328;BME280;22354;50.012;8.264;2022-08-02T00:31:16;100879.06;;;20.51;100.00
36328;BME280;22354;50.012;8.264;2022-08-02T00:33:42;100880.94;;;20.51;100.00
36328;BME280;22354;50.012;8.264;2022-08-02T00:36:07;100879.47;;;20.55;100.00
36328;BME280;22354;50.012;8.264;2022-08-02T00:38:32;100883.50;;;20.72;100.00
36328;BME280;22354;50.012;8.264;2022-08-02T00:40:57;100891.84;;;20.77;100.00
36328;BME280;22354;50.012;8.264;2022-08-02T00:43:23;100881.38;;;20.81;100.00
36328;BME280;22354;50.012;8.264;2022-08-02T00:45:48;100884.72;;;20.70;100.00
36328;BME280;22354;50.012;8.264;2022-08-02T00:48:13;100886.00;;;20.74;100.00
36328;BME280;22354;50.012;8.264;2022-08-02T00:50:39;100881.41;;;20.87;100.00
36328;BME280;22354;50.012;8.264;2022-08-02T00:53:05;100880.53;;;21.00;100.00
36328;BME280;22354;50.012;8.264;2022-08-02T00:55:34;100883.91;;;20.89;100.00
36328;BME280;22354;50.012;8.264;2022-08-02T00:57:59;100891.88;;;20.84;100.00
36328;BME280;22354;50.012;8.264;2022-08-02T01:00:25;100886.81;;;20.68;100.00
36328;BME280;22354;50.012;8.264;2022-08-02T01:02:50;100884.31;;;20.79;100.00
36328;BME280;22354;50.012;8.264;2022-08-02T01:05:16;100878.03;;;20.85;100.00
36328;BME280;22354;50.012;8.264;2022-08-02T01:07:41;100880.53;;;20.80;100.00
36328;BME280;22354;50.012;8.264;2022-08-02T01:10:07;100877.81;;;20.67;100.00
36328;BME280;22354;50.012;8.264;2022-08-02T01:12:33;100872.59;;;20.79;100.00
36328;BME280;22354;50.012;8.264;2022-08-02T01:15:01;100870.06;;;20.90;100.00
36328;BME280;22354;50.012;8.264;2022-08-02T01:17:41;100871.97;;;20.90;100.00
36328;BME280;22354;50.012;8.264;2022-08-02T01:31:09;100859.41;;;20.63;100.00
36328;BME280;22354;50.012;8.264;2022-08-02T01:33:43;100860.44;;;20.61;100.00
36328;BME280;22354;50.012;8.264;2022-08-02T01:36:12;100870.06;;;20.77;100.00
36328;BME280;22354;50.012;8.264;2022-08-02T01:38:42;100866.31;;;20.72;100.00
36328;BME280;22354;50.012;8.264;2022-08-02T01:41:12;100870.50;;;20.61;100.00
36328;BME280;22354;50.012;8.264;2022-08-02T01:43:41;100879.94;;;20.72;100.00
36328;BME280;22354;50.012;8.264;2022-08-02T01:46:10;100873.84;;;20.63;100.00
36328;BME280;22354;50.012;8.264;2022-08-02T01:48:39;100869.63;;;20.54;100.00
36328;BME280;22354;50.012;8.264;2022-08-02T01:51:07;100875.91;;;20.54;100.00
36328;BME280;22354;50.012;8.264;2022-08-02T01:53:37;100876.34;;;20.51;100.00
36328;BME280;22354;50.012;8.264;2022-08-02T01:56:06;100874.91;;;20.62;100.00
36328;BME280;22354;50.012;8.264;2022-08-02T01:58:34;100868.38;;;20.50;100.00
36328;BME280;22354;50.012;8.264;2022-08-02T02:01:00;100870.06;;;20.51;100.00
36328;BME280;22354;50.012;8.264;2022-08-02T02:03:28;100866.28;;;20.52;100.00
36328;BME280;22354;50.012;8.264;2022-08-02T02:05:56;100873.16;;;20.35;100.00
36328;BME280;22354;50.012;8.264;2022-08-02T02:08:26;100865.47;;;20.45;100.00
36328;BME280;22354;50.012;8.264;2022-08-02T02:10:54;100878.59;;;20.41;100.00
36328;BME280;22354;50.012;8.264;2022-08-02T02:13:20;100874.19;;;20.40;100.00
36328;BME280;22354;50.012;8.264;2022-08-02T02:15:47;100875.88;;;20.35;100.00
36328;BME280;22354;50.012;8.264;2022-08-02T02:18:17;100875.69;;;20.43;100.00
36328;BME280;22354;50.012;8.264;2022-08-02T02:20:45;100875.00;;;20.21;100.00
36328;BME280;22354;50.012;8.264;2022-08-02T02:23:11;100886.31;;;20.24;100.00
36328;BME280;22354;50.012;8.264;2022-08-02T02:25:39;100876.06;;;20.26;100.00
36328;BME280;22354;50.012;8.264;2022-08-02T02:28:13;100882.78;;;20.37;100.00
36328;BME280;22354;50.012;8.264;2022-08-02T02:30:45;100868.81;;;20.47;100.00
36328;BME280;22354;50.012;8.264;2022-08-02T02:33:12;100865.88;;;20.48;100.00
36328;BME280;22354;50.012;8.264;2022-08-02T02:35:38;100869.75;;;20.13;100.00
36328;BME280;22354;50.012;8.264;2022-08-02T02:38:08;100871.41;;;20.07;100.00
36328;BME280;22354;50.012;8.264;2022-08-02T02:40:36;100871.44;;;20.27;100.00
36328;BME280;22354;50.012;8.264;2022-08-02T02:43:03;100877.09;;;20.19;100.00
36328;BME280;22354;50.012;8.264;2022-08-02T02:45:30;100871.66;;;20.19;100.00
36328;BME280;22354;50.012;8.264;2022-08-02T02:47:56;100875.41;;;20.11;100.00
36328;BME280;22354;50.012;8.264;2022-08-02T02:50:24;100875.59;;;20.10;100.00
36328;BME280;22354;50.012;8.264;2022-08-02T02:52:51;100877.44;;;20.02;100.00
36328;BME280;22354;50.012;8.264;2022-08-02T02:55:17;100871.38;;;20.00;100.00
36328;BME280;22354;50.012;8.264;2022-08-02T02:57:43;100877.50;;;20.16;100.00
36328;BME280;22354;50.012;8.264;2022-08-02T03:00:10;100874.97;;;20.08;100.00
36328;BME280;22354;50.012;8.264;2022-08-02T03:02:38;100878.78;;;20.20;100.00
36328;BME280;22354;50.012;8.264;2022-08-02T03:05:09;100876.41;;;20.03;100.00
36328;BME280;22354;50.012;8.264;2022-08-02T03:07:35;100886.25;;;19.98;100.00
36328;BME280;22354;50.012;8.264;2022-08-02T03:10:05;100882.00;;;19.89;100.00
36328;BME280;22354;50.012;8.264;2022-08-02T03:12:33;100872.28;;;19.60;100.00
36328;BME280;22354;50.012;8.264;2022-08-02T03:15:00;100868.97;;;19.71;100.00
36328;BME280;22354;50.012;8.264;2022-08-02T03:17:36;100854.72;;;19.62;100.00
36328;BME280;22354;50.012;8.264;2022-08-02T03:20:02;100860.03;;;19.42;100.00
36328;BME280;22354;50.012;8.264;2022-08-02T03:22:27;100860.13;;;19.56;100.00
36328;BME280;22354;50.012;8.264;2022-08-02T03:24:52;100866.97;;;19.52;100.00
36328;BME280;22354;50.012;8.264;2022-08-02T03:27:18;100867.53;;;19.75;100.00
36328;BME280;22354;50.012;8.264;2022-08-02T03:29:43;100868.28;;;19.56;100.00
36328;BME280;22354;50.012;8.264;2022-08-02T03:32:08;100866.53;;;19.48;100.00
36328;BME280;22354;50.012;8.264;2022-08-02T03:34:33;100876.75;;;19.46;100.00
36328;BME280;22354;50.012;8.264;2022-08-02T03:37:00;100867.16;;;19.43;100.00
36328;BME280;22354;50.012;8.264;2022-08-02T03:39:26;100867.94;;;19.37;100.00
36328;BME280;22354;50.012;8.264;2022-08-02T03:41:53;100869.09;;;19.22;100.00
36328;BME280;22354;50.012;8.264;2022-08-02T03:44:19;100876.59;;;19.20;100.00
36328;BME280;22354;50.012;8.264;2022-08-02T03:46:44;100879.53;;;19.18;100.00
36328;BME280;22354;50.012;8.264;2022-08-02T03:49:10;100874.44;;;19.08;100.00
36328;BME280;22354;50.012;8.264;2022-08-02T03:51:36;100877.06;;;18.95;100.00
36328;BME280;22354;50.012;8.264;2022-08-02T03:54:02;100875.50;;;18.86;100.00
36328;BME280;22354;50.012;8.264;2022-08-02T03:56:28;100870.63;;;18.75;100.00
36328;BME280;22354;50.012;8.264;2022-08-02T03:59:10;100880.94;;;18.86;100.00
36328;BME280;22354;50.012;8.264;2022-08-02T04:01:36;100874.19;;;18.75;100.00
36328;BME280;22354;50.012;8.264;2022-08-02T04:04:02;100875.38;;;18.66;100.00
36328;BME280;22354;50.012;8.264;2022-08-02T04:06:27;100881.53;;;18.60;100.00
36328;BME280;22354;50.012;8.264;2022-08-02T04:08:52;100873.13;;;18.55;100.00
36328;BME280;22354;50.012;8.264;2022-08-02T04:11:18;100881.09;;;18.56;100.00
36328;BME280;22354;50.012;8.264;2022-08-02T04:13:56;100884.84;;;18.55;100.00
36328;BME280;22354;50.012;8.264;2022-08-02T04:16:27;100885.16;;;18.46;100.00
36328;BME280;22354;50.012;8.264;2022-08-02T04:18:55;100885.63;;;18.49;100.00
36328;BME280;22354;50.012;8.264;2022-08-02T04:21:25;100880.00;;;18.72;100.00
36328;BME280;22354;50.012;8.264;2022-08-02T04:23:52;100888.84;;;18.81;100.00
36328;BME280;22354;50.012;8.264;2022-08-02T04:26:20;100888.34;;;18.71;100.00
36328;BME280;22354;50.012;8.264;2022-08-02T04:28:45;100895.44;;;18.72;100.00
36328;BME280;22354;50.012;8.264;2022-08-02T04:31:13;100893.56;;;18.72;100.00
36328;BME280;22354;50.012;8.264;2022-08-02T04:33:39;100896.69;;;18.69;100.00
36328;BME280;22354;50.012;8.264;2022-08-02T04:36:05;100894.28;;;18.81;100.00
36328;BME280;22354;50.012;8.264;2022-08-02T04:38:31;100903.19;;;18.75;100.00
36328;BME280;22354;50.012;8.264;2022-08-02T04:40:56;100902.66;;;18.86;100.00
36328;BME280;22354;50.012;8.264;2022-08-02T04:43:22;100903.34;;;18.67;100.00
36328;BME280;22354;50.012;8.264;2022-08-02T04:45:50;100906.63;;;18.62;100.00
36328;BME280;22354;50.012;8.264;2022-08-02T04:48:16;100913.91;;;18.83;100.00
36328;BME280;22354;50.012;8.264;2022-08-02T04:50:41;100914.44;;;18.93;100.00
36328;BME280;22354;50.012;8.264;2022-08-02T04:53:07;100921.00;;;19.05;100.00
36328;BME280;22354;50.012;8.264;2022-08-02T04:55:32;100917.06;;;19.08;100.00
36328;BME280;22354;50.012;8.264;2022-08-02T04:57:57;100923.47;;;19.28;100.00
36328;BME280;22354;50.012;8.264;2022-08-02T05:00:23;100925.19;;;19.36;100.00
36328;BME280;22354;50.012;8.264;2022-08-02T05:02:49;100923.09;;;19.38;100.00
36328;BME280;22354;50.012;8.264;2022-08-02T05:05:15;100934.63;;;19.12;100.00
36328;BME280;22354;50.012;8.264;2022-08-02T05:07:40;100943.03;;;19.17;100.00
36328;BME280;22354;50.012;8.264;2022-08-02T05:10:06;100935.66;;;19.11;100.00
36328;BME280;22354;50.012;8.264;2022-08-02T05:12:31;100929.97;;;19.27;100.00
36328;BME280;22354;50.012;8.264;2022-08-02T05:14:56;100924.31;;;19.29;100.00
36328;BME280;22354;50.012;8.264;2022-08-02T05:17:22;100919.41;;;19.45;100.00
36328;BME280;22354;50.012;8.264;2022-08-02T05:19:47;100919.59;;;19.44;100.00
36328;BME280;22354;50.012;8.264;2022-08-02T05:22:12;100919.75;;;19.36;100.00
36328;BME280;22354;50.012;8.264;2022-08-02T05:24:37;100920.38;;;19.38;100.00
36328;BME280;22354;50.012;8.264;2022-08-02T05:27:03;100917.69;;;19.38;100.00
36328;BME280;22354;50.012;8.264;2022-08-02T05:29:28;100920.66;;;19.43;100.00
36328;BME280;22354;50.012;8.264;2022-08-02T05:31:53;100909.28;;;19.61;100.00
36328;BME280;22354;50.012;8.264;2022-08-02T05:34:19;100915.41;;;19.76;100.00
36328;BME280;22354;50.012;8.264;2022-08-02T05:36:44;100916.78;;;19.93;100.00
36328;BME280;22354;50.012;8.264;2022-08-02T05:39:09;100916.31;;;19.90;100.00
36328;BME280;22354;50.012;8.264;2022-08-02T05:41:35;100917.56;;;19.81;100.00
36328;BME280;22354;50.012;8.264;2022-08-02T05:44:01;100921.38;;;19.99;100.00
36328;BME280;22354;50.012;8.264;2022-08-02T05:46:26;100919.72;;;19.98;100.00
36328;BME280;22354;50.012;8.264;2022-08-02T05:48:51;100924.50;;;19.96;100.00
36328;BME280;22354;50.012;8.264;2022-08-02T05:54:18;100918.25;;;20.02;100.00
36328;BME280;22354;50.012;8.264;2022-08-02T05:56:55;100926.88;;;20.13;100.00
36328;BME280;22354;50.012;8.264;2022-08-02T05:59:38;100924.81;;;20.28;100.00
36328;BME280;22354;50.012;8.264;2022-08-02T06:02:16;100919.50;;;20.74;100.00
36328;BME280;22354;50.012;8.264;2022-08-02T06:04:56;100934.06;;;20.40;100.00
36328;BME280;22354;50.012;8.264;2022-08-02T06:07:23;100940.00;;;20.70;100.00
36328;BME280;22354;50.012;8.264;2022-08-02T06:09:49;100932.72;;;20.71;100.00
36328;BME280;22354;50.012;8.264;2022-08-02T06:12:15;100937.63;;;20.34;100.00
36328;BME280;22354;50.012;8.264;2022-08-02T06:14:42;100936.53;;;20.28;100.00
36328;BME280;22354;50.012;8.264;2022-08-02T06:17:07;100926.28;;;20.24;100.00
36328;BME280;22354;50.012;8.264;2022-08-02T06:19:36;100937.44;;;20.42;100.00
36328;BME280;22354;50.012;8.264;2022-08-02T06:22:02;100937.38;;;20.29;100.00
36328;BME280;22354;50.012;8.264;2022-08-02T06:24:42;100933.09;;;20.54;100.00
36328;BME280;22354;50.012;8.264;2022-08-02T06:29:34;100942.72;;;20.50;100.00
36328;BME280;22354;50.012;8.264;2022-08-02T06:32:01;100932.44;;;20.52;100.00
36328;BME280;22354;50.012;8.264;2022-08-02T06:34:27;100936.56;;;20.35;100.00
36328;BME280;22354;50.012;8.264;2022-08-02T06:37:01;100936.63;;;20.42;100.00
36328;BME280;22354;50.012;8.264;2022-08-02T06:39:41;100930.00;;;20.71;100.00
36328;BME280;22354;50.012;8.264;2022-08-02T06:42:11;100934.16;;;20.80;100.00
36328;BME280;22354;50.012;8.264;2022-08-02T06:44:37;100930.00;;;20.71;100.00
36328;BME280;22354;50.012;8.264;2022-08-02T06:47:03;100930.81;;;20.91;100.00
36328;BME280;22354;50.012;8.264;2022-08-02T06:49:29;100927.88;;;20.92;100.00
36328;BME280;22354;50.012;8.264;2022-08-02T06:51:54;100932.06;;;20.95;100.00
36328;BME280;22354;50.012;8.264;2022-08-02T06:54:19;100926.63;;;21.41;100.00
36328;BME280;22354;50.012;8.264;2022-08-02T06:56:46;100926.03;;;22.04;100.00
36328;BME280;22354;50.012;8.264;2022-08-02T06:59:11;100929.66;;;21.91;100.00
36328;BME280;22354;50.012;8.264;2022-08-02T07:01:37;100921.59;;;21.45;100.00
36328;BME280;22354;50.012;8.264;2022-08-02T07:04:03;100920.78;;;21.31;100.00
36328;BME280;22354;50.012;8.264;2022-08-02T07:06:28;100918.03;;;21.18;100.00
36328;BME280;22354;50.012;8.264;2022-08-02T07:08:54;100919.53;;;21.27;100.00
36328;BME280;22354;50.012;8.264;2022-08-02T07:11:19;100917.03;;;21.26;100.00
36328;BME280;22354;50.012;8.264;2022-08-02T07:13:45;100920.53;;;21.19;100.00
36328;BME280;22354;50.012;8.264;2022-08-02T07:16:10;100921.22;;;21.28;100.00
36328;BME280;22354;50.012;8.264;2022-08-02T07:18:35;100922.03;;;21.29;100.00
36328;BME280;22354;50.012;8.264;2022-08-02T07:21:01;100924.94;;;21.47;100.00
36328;BME280;22354;50.012;8.264;2022-08-02T07:23:30;100916.13;;;21.45;100.00
36328;BME280;22354;50.012;8.264;2022-08-02T07:25:55;100910.25;;;21.48;100.00
36328;BME280;22354;50.012;8.264;2022-08-02T07:28:20;100910.69;;;21.45;100.00
36328;BME280;22354;50.012;8.264;2022-08-02T07:30:46;100911.09;;;21.55;100.00
36328;BME280;22354;50.012;8.264;2022-08-02T07:33:11;100909.19;;;21.62;100.00
36328;BME280;22354;50.012;8.264;2022-08-02T07:35:36;100907.69;;;21.66;100.00
36328;BME280;22354;50.012;8.264;2022-08-02T07:38:02;100909.31;;;21.81;100.00
36328;BME280;22354;50.012;8.264;2022-08-02T07:40:27;100904.31;;;21.77;100.00
36328;BME280;22354;50.012;8.264;2022-08-02T07:42:54;100898.84;;;21.77;100.00
36328;BME280;22354;50.012;8.264;2022-08-02T07:45:21;100899.59;;;21.98;100.00
36328;BME280;22354;50.012;8.264;2022-08-02T07:47:47;100904.44;;;21.96;100.00
36328;BME280;22354;50.012;8.264;2022-08-02T07:50:15;100902.91;;;22.13;100.00
36328;BME280;22354;50.012;8.264;2022-08-02T07:52:41;100896.53;;;22.26;100.00
36328;BME280;22354;50.012;8.264;2022-08-02T07:55:08;100900.91;;;22.33;100.00
36328;BME280;22354;50.012;8.264;2022-08-02T07:57:34;100896.97;;;22.29;100.00
36328;BME280;22354;50.012;8.264;2022-08-02T08:00:01;100902.28;;;22.49;100.00
36328;BME280;22354;50.012;8.264;2022-08-02T08:02:26;100891.88;;;22.64;100.00
36328;BME280;22354;50.012;8.264;2022-08-02T08:04:53;100898.72;;;22.80;100.00
36328;BME280;22354;50.012;8.264;2022-08-02T08:07:18;100894.22;;;22.92;100.00
36328;BME280;22354;50.012;8.264;2022-08-02T08:09:44;100892.09;;;22.94;100.00
36328;BME280;22354;50.012;8.264;2022-08-02T08:12:11;100889.06;;;23.03;100.00
36328;BME280;22354;50.012;8.264;2022-08-02T08:14:37;100899.03;;;23.15;100.00
36328;BME280;22354;50.012;8.264;2022-08-02T08:17:06;100889.59;;;23.18;100.00
36328;BME280;22354;50.012;8.264;2022-08-02T08:19:31;100885.16;;;23.17;100.00
36328;BME280;22354;50.012;8.264;2022-08-02T08:21:57;100883.28;;;23.36;100.00
36328;BME280;22354;50.012;8.264;2022-08-02T08:24:25;100889.50;;;23.43;100.00
36328;BME280;22354;50.012;8.264;2022-08-02T08:26:50;100895.22;;;23.41;100.00
36328;BME280;22354;50.012;8.264;2022-08-02T08:29:15;100896.34;;;23.52;100.00
36328;BME280;22354;50.012;8.264;2022-08-02T08:31:41;100895.34;;;23.71;100.00
36328;BME280;22354;50.012;8.264;2022-08-02T08:34:06;100900.50;;;23.79;100.00
36328;BME280;22354;50.012;8.264;2022-08-02T08:36:31;100900.34;;;23.74;100.00
36328;BME280;22354;50.012;8.264;2022-08-02T08:38:56;100901.88;;;23.70;100.00
36328;BME280;22354;50.012;8.264;2022-08-02T08:41:22;100901.31;;;23.80;100.00
36328;BME280;22354;50.012;8.264;2022-08-02T08:43:47;100900.56;;;23.91;100.00
36328;BME280;22354;50.012;8.264;2022-08-02T08:46:23;100895.28;;;24.08;100.00
36328;BME280;22354;50.012;8.264;2022-08-02T08:48:52;100884.31;;;23.96;100.00
36328;BME280;22354;50.012;8.264;2022-08-02T08:51:20;100879.78;;;24.02;100.00
36328;BME280;22354;50.012;8.264;2022-08-02T08:53:49;100879.28;;;24.23;100.00
36328;BME280;22354;50.012;8.264;2022-08-02T08:56:18;100883.41;;;24.14;100.00
36328;BME280;22354;50.012;8.264;2022-08-02T08:58:44;100883.66;;;24.42;100.00
36328;BME280;22354;50.012;8.264;2022-08-02T09:01:12;100891.00;;;24.72;100.00
36328;BME280;22354;50.012;8.264;2022-08-02T09:03:39;100890.16;;;24.71;100.00
36328;BME280;22354;50.012;8.264;2022-08-02T09:06:04;100888.13;;;24.67;100.00
36328;BME280;22354;50.012;8.264;2022-08-02T09:08:30;100889.44;;;24.64;100.00
36328;BME280;22354;50.012;8.264;2022-08-02T09:10:56;100891.09;;;24.54;100.00
36328;BME280;22354;50.012;8.264;2022-08-02T09:13:26;100884.28;;;24.56;100.00
36328;BME280;22354;50.012;8.264;2022-08-02T09:16:01;100882.16;;;24.58;100.00
36328;BME280;22354;50.012;8.264;2022-08-02T09:18:36;100892.50;;;24.56;100.00
36328;BME280;22354;50.012;8.264;2022-08-02T09:21:05;100889.31;;;24.59;100.00
36328;BME280;22354;50.012;8.264;2022-08-02T09:23:38;100893.25;;;24.63;100.00
36328;BME280;22354;50.012;8.264;2022-08-02T09:26:06;100894.34;;;24.62;100.00
36328;BME280;22354;50.012;8.264;2022-08-02T09:28:34;100889.19;;;24.54;100.00
36328;BME280;22354;50.012;8.264;2022-08-02T09:31:28;100887.56;;;24.77;100.00
36328;BME280;22354;50.012;8.264;2022-08-02T09:33:58;100884.34;;;24.80;100.00
36328;BME280;22354;50.012;8.264;2022-08-02T09:36:25;100876.25;;;24.85;100.00
36328;BME280;22354;50.012;8.264;2022-08-02T09:38:59;100871.00;;;24.83;100.00
36328;BME280;22354;50.012;8.264;2022-08-02T09:41:30;100876.00;;;24.98;100.00
36328;BME280;22354;50.012;8.264;2022-08-02T09:43:57;100871.13;;;25.00;100.00
36328;BME280;22354;50.012;8.264;2022-08-02T09:46:27;100870.28;;;24.99;100.00
36328;BME280;22354;50.012;8.264;2022-08-02T09:48:57;100868.56;;;25.05;100.00
36328;BME280;22354;50.012;8.264;2022-08-02T09:51:26;100867.59;;;25.11;100.00
36328;BME280;22354;50.012;8.264;2022-08-02T09:53:56;100870.81;;;25.20;100.00
36328;BME280;22354;50.012;8.264;2022-08-02T09:56:24;100870.91;;;25.37;100.00
36328;BME280;22354;50.012;8.264;2022-08-02T09:58:50;100860.16;;;25.47;100.00
36328;BME280;22354;50.012;8.264;2022-08-02T10:01:18;100855.25;;;25.61;100.00
36328;BME280;22354;50.012;8.264;2022-08-02T10:04:13;100852.00;;;25.64;100.00
36328;BME280;22354;50.012;8.264;2022-08-02T10:06:40;100859.78;;;25.67;100.00
36328;BME280;22354;50.012;8.264;2022-08-02T10:09:06;100859.16;;;25.76;100.00
36328;BME280;22354;50.012;8.264;2022-08-02T10:11:32;100857.16;;;25.72;100.00
36328;BME280;22354;50.012;8.264;2022-08-02T10:13:59;100845.94;;;25.73;100.00
36328;BME280;22354;50.012;8.264;2022-08-02T10:16:26;100845.81;;;25.68;100.00
36328;BME280;22354;50.012;8.264;2022-08-02T10:18:53;100839.56;;;25.84;100.00
36328;BME280;22354;50.012;8.264;2022-08-02T10:21:23;100845.94;;;26.02;100.00
36328;BME280;22354;50.012;8.264;2022-08-02T10:23:59;100845.41;;;26.45;100.00
36328;BME280;22354;50.012;8.264;2022-08-02T10:26:29;100841.72;;;26.39;100.00
36328;BME280;22354;50.012;8.264;2022-08-02T10:28:55;100842.09;;;26.60;100.00
36328;BME280;22354;50.012;8.264;2022-08-02T10:31:24;100836.00;;;26.58;100.00
36328;BME280;22354;50.012;8.264;2022-08-02T10:33:53;100838.44;;;26.71;100.00
36328;BME280;22354;50.012;8.264;2022-08-02T10:36:21;100830.16;;;27.04;100.00
36328;BME280;22354;50.012;8.264;2022-08-02T10:38:48;100834.09;;;27.09;100.00
36328;BME280;22354;50.012;8.264;2022-08-02T10:41:14;100840.44;;;26.59;100.00
36328;BME280;22354;50.012;8.264;2022-08-02T10:43:41;100829.53;;;27.19;100.00
36328;BME280;22354;50.012;8.264;2022-08-02T10:49:19;100816.56;;;26.02;100.00
36328;BME280;22354;50.012;8.264;2022-08-02T10:54:17;100820.19;;;26.48;100.00
36328;BME280;22354;50.012;8.264;2022-08-02T10:56:45;100818.69;;;26.29;100.00
36328;BME280;22354;50.012;8.264;2022-08-02T10:59:24;100817.44;;;26.65;100.00
36328;BME280;22354;50.012;8.264;2022-08-02T11:01:51;100814.44;;;26.83;100.00
36328;BME280;22354;50.012;8.264;2022-08-02T11:04:17;100815.22;;;27.00;100.00
36328;BME280;22354;50.012;8.264;2022-08-02T11:07:11;100820.00;;;26.88;100.00
36328;BME280;22354;50.012;8.264;2022-08-02T11:09:48;100808.09;;;26.66;100.00
36328;BME280;22354;50.012;8.264;2022-08-02T11:12:16;100812.59;;;26.89;100.00
36328;BME280;22354;50.012;8.264;2022-08-02T11:14:56;100812.66;;;27.11;100.00
36328;BME280;22354;50.012;8.264;2022-08-02T11:17:22;100792.78;;;27.47;100.00
36328;BME280;22354;50.012;8.264;2022-08-02T11:22:33;100792.59;;;27.32;100.00
36328;BME280;22354;50.012;8.264;2022-08-02T11:27:50;100793.16;;;27.34;100.00
36328;BME280;22354;50.012;8.264;2022-08-02T11:30:16;100787.09;;;27.32;100.00
36328;BME280;22354;50.012;8.264;2022-08-02T11:32:41;100778.44;;;27.45;100.00
36328;BME280;22354;50.012;8.264;2022-08-02T11:35:08;100788.69;;;27.28;100.00
36328;BME280;22354;50.012;8.264;2022-08-02T11:37:36;100793.72;;;27.14;100.00
36328;BME280;22354;50.012;8.264;2022-08-02T11:40:07;100782.94;;;27.51;100.00
36328;BME280;22354;50.012;8.264;2022-08-02T11:42:35;100790.22;;;27.41;100.00
36328;BME280;22354;50.012;8.264;2022-08-02T11:45:02;100779.69;;;28.03;100.00
36328;BME280;22354;50.012;8.264;2022-08-02T11:47:27;100782.69;;;28.29;100.00
36328;BME280;22354;50.012;8.264;2022-08-02T11:50:04;100788.50;;;28.05;100.00
36328;BME280;22354;50.012;8.264;2022-08-02T11:52:33;100778.69;;;28.14;100.00
36328;BME280;22354;50.012;8.264;2022-08-02T11:54:59;100769.41;;;28.58;100.00
36328;BME280;22354;50.012;8.264;2022-08-02T11:57:24;100774.06;;;28.52;100.00
36328;BME280;22354;50.012;8.264;2022-08-02T11:59:52;100773.66;;;28.70;100.00
36328;BME280;22354;50.012;8.264;2022-08-02T12:02:19;100766.53;;;29.22;100.00
36328;BME280;22354;50.012;8.264;2022-08-02T12:04:57;100762.81;;;29.48;100.00
36328;BME280;22354;50.012;8.264;2022-08-02T12:07:31;100762.97;;;30.19;100.00
36328;BME280;22354;50.012;8.264;2022-08-02T12:10:04;100753.78;;;29.93;100.00
36328;BME280;22354;50.012;8.264;2022-08-02T12:12:30;100762.16;;;29.31;100.00
36328;BME280;22354;50.012;8.264;2022-08-02T12:14:55;100755.16;;;29.13;100.00
36328;BME280;22354;50.012;8.264;2022-08-02T12:17:24;100764.00;;;28.73;100.00
36328;BME280;22354;50.012;8.264;2022-08-02T12:20:10;100765.09;;;29.09;100.00
36328;BME280;22354;50.012;8.264;2022-08-02T12:22:36;100755.75;;;29.20;100.00
36328;BME280;22354;50.012;8.264;2022-08-02T12:25:22;100753.19;;;29.03;100.00
36328;BME280;22354;50.012;8.264;2022-08-02T12:27:48;100752.44;;;29.18;100.00
36328;BME280;22354;50.012;8.264;2022-08-02T12:30:15;100754.34;;;29.13;100.00
36328;BME280;22354;50.012;8.264;2022-08-02T12:32:42;100749.69;;;30.27;100.00
36328;BME280;22354;50.012;8.264;2022-08-02T12:35:12;100743.59;;;30.75;97.37
36328;BME280;22354;50.012;8.264;2022-08-02T12:37:42;100751.38;;;30.22;100.00
36328;BME280;22354;50.012;8.264;2022-08-02T12:40:24;100750.78;;;30.05;99.09
36328;BME280;22354;50.012;8.264;2022-08-02T12:43:17;100744.22;;;29.38;100.00
36328;BME280;22354;50.012;8.264;2022-08-02T12:45:54;100742.34;;;29.44;100.00
36328;BME280;22354;50.012;8.264;2022-08-02T12:48:35;100745.50;;;30.04;100.00
36328;BME280;22354;50.012;8.264;2022-08-02T12:51:21;100734.50;;;30.65;99.63
36328;BME280;22354;50.012;8.264;2022-08-02T12:53:48;100731.72;;;30.39;98.33
36328;BME280;22354;50.012;8.264;2022-08-02T12:56:36;100715.84;;;31.65;90.87
36328;BME280;22354;50.012;8.264;2022-08-02T12:59:01;100716.06;;;31.74;88.23
36328;BME280;22354;50.012;8.264;2022-08-02T13:01:27;100708.19;;;32.31;84.67
36328;BME280;22354;50.012;8.264;2022-08-02T13:03:53;100708.38;;;32.92;80.64
36328;BME280;22354;50.012;8.264;2022-08-02T13:06:19;100715.03;;;31.60;82.80
36328;BME280;22354;50.012;8.264;2022-08-02T13:08:46;100719.47;;;31.01;82.83
36328;BME280;22354;50.012;8.264;2022-08-02T13:11:12;100717.88;;;30.44;85.21
36328;BME280;22354;50.012;8.264;2022-08-02T13:13:37;100722.81;;;29.81;88.53